createdAt,value
2019-02-08T00:00:27.470Z,5.60
2019-02-08T00:02:56.052Z,5.60
2019-02-08T00:05:24.546Z,5.60
2019-02-08T00:07:53.522Z,5.60
2019-02-08T00:10:22.110Z,5.60
2019-02-08T00:12:50.589Z,5.60
2019-02-08T00:15:23.280Z,5.60
2019-02-08T00:17:51.864Z,5.60
2019-02-08T00:20:23.679Z,5.50
2019-02-08T00:22:52.098Z,5.50
2019-02-08T00:25:24.255Z,5.50
2019-02-08T00:27:52.922Z,5.50
2019-02-08T00:30:29.038Z,5.50
2019-02-08T00:32:57.657Z,5.50
2019-02-08T00:35:26.423Z,5.50
2019-02-08T00:37:55.000Z,5.50
2019-02-08T00:40:25.253Z,5.40
2019-02-08T00:42:54.208Z,5.40
2019-02-08T00:45:23.736Z,5.40
2019-02-08T00:47:52.319Z,5.40
2019-02-08T00:50:23.823Z,5.30
2019-02-08T00:52:53.832Z,5.30
2019-02-08T00:55:22.292Z,5.30
2019-02-08T00:57:50.874Z,5.30
2019-02-08T01:00:20.382Z,5.30
2019-02-08T01:02:50.190Z,5.30
2019-02-08T01:05:24.537Z,5.30
2019-02-08T01:07:53.142Z,5.30
2019-02-08T01:10:32.708Z,5.30
2019-02-08T01:13:20.725Z,5.40
2019-02-08T01:15:49.139Z,5.40
2019-02-08T01:18:17.528Z,5.50
2019-02-08T01:20:46.009Z,5.60
2019-02-08T01:23:14.736Z,5.60
2019-02-08T01:25:43.363Z,5.60
2019-02-08T01:28:11.751Z,5.60
2019-02-08T01:30:40.172Z,5.70
2019-02-08T01:33:08.555Z,5.80
2019-02-08T01:35:37.221Z,5.80
2019-02-08T01:38:05.629Z,5.90
2019-02-08T01:40:37.104Z,6.00
2019-02-08T01:43:07.132Z,6.00
2019-02-08T01:45:35.980Z,5.90
2019-02-08T01:48:07.419Z,5.90
2019-02-08T01:50:36.090Z,5.90
2019-02-08T01:53:05.116Z,5.90
2019-02-08T01:55:33.541Z,5.80
2019-02-08T01:58:01.923Z,5.90
2019-02-08T02:00:33.428Z,5.90
2019-02-08T02:03:02.552Z,5.90
2019-02-08T02:05:31.256Z,5.90
2019-02-08T02:07:59.816Z,5.90
2019-02-08T02:10:30.142Z,6.00
2019-02-08T02:12:58.553Z,6.00
2019-02-08T02:15:28.084Z,6.10
2019-02-08T02:17:56.968Z,6.10
2019-02-08T02:20:33.348Z,6.10
2019-02-08T02:23:02.071Z,6.10
2019-02-08T02:25:30.732Z,6.10
2019-02-08T02:27:59.758Z,6.20
2019-02-08T02:30:30.765Z,6.20
2019-02-08T02:32:59.182Z,6.20
2019-02-08T02:35:27.678Z,6.30
2019-02-08T02:37:56.168Z,6.30
2019-02-08T02:40:24.737Z,6.40
2019-02-08T02:42:56.297Z,6.40
2019-02-08T02:45:36.472Z,6.40
2019-02-08T02:48:06.535Z,6.30
2019-02-08T02:50:34.996Z,6.40
2019-02-08T02:53:03.501Z,6.40
2019-02-08T02:55:31.979Z,6.40
2019-02-08T02:58:00.398Z,6.40
2019-02-08T03:00:40.127Z,6.40
2019-02-08T03:03:08.706Z,6.50
2019-02-08T03:05:37.442Z,6.50
2019-02-08T03:08:07.592Z,6.50
2019-02-08T03:10:36.271Z,6.60
2019-02-08T03:13:05.336Z,6.50
2019-02-08T03:15:33.784Z,6.60
2019-02-08T03:18:02.265Z,6.50
2019-02-08T03:20:30.665Z,6.50
2019-02-08T03:22:59.079Z,6.50
2019-02-08T03:25:29.304Z,6.50
2019-02-08T03:27:58.386Z,6.40
2019-02-08T03:30:33.555Z,6.40
2019-02-08T03:33:02.031Z,6.40
2019-02-08T03:35:30.490Z,6.30
2019-02-08T03:37:58.908Z,6.40
2019-02-08T03:40:31.879Z,6.40
2019-02-08T03:43:00.560Z,6.30
2019-02-08T03:45:30.584Z,6.30
2019-02-08T03:47:58.991Z,6.20
2019-02-08T03:50:27.394Z,6.30
2019-02-08T03:52:55.978Z,6.30
2019-02-08T03:55:24.940Z,6.40
2019-02-08T03:57:53.358Z,6.40
2019-02-08T04:00:50.020Z,6.40
2019-02-08T04:03:18.436Z,6.40
2019-02-08T04:05:46.996Z,6.40
2019-02-08T04:08:15.415Z,6.40
2019-02-08T04:10:43.978Z,6.50
2019-02-08T04:13:12.386Z,6.50
2019-02-08T04:15:40.796Z,6.50
2019-02-08T04:18:09.382Z,6.60
2019-02-08T04:20:37.763Z,6.70
2019-02-08T04:23:06.172Z,6.60
2019-02-08T04:25:34.571Z,6.70
2019-02-08T04:28:02.969Z,6.70
2019-02-08T04:30:32.378Z,6.70
2019-02-08T04:33:02.029Z,6.60
2019-02-08T04:35:30.801Z,6.60
2019-02-08T04:37:59.281Z,6.70
2019-02-08T04:40:28.526Z,6.70
2019-02-08T04:42:56.912Z,6.70
2019-02-08T04:45:25.540Z,6.70
2019-02-08T04:47:54.132Z,6.70
2019-02-08T04:50:24.361Z,6.60
2019-02-08T04:52:53.105Z,6.70
2019-02-08T04:55:21.762Z,6.70
2019-02-08T04:57:50.248Z,6.70
2019-02-08T05:00:21.650Z,6.70
2019-02-08T05:02:50.150Z,6.70
2019-02-08T05:05:18.606Z,6.80
2019-02-08T05:07:46.995Z,6.80
2019-02-08T05:10:27.203Z,6.80
2019-02-08T05:12:55.684Z,6.80
2019-02-08T05:15:24.517Z,6.80
2019-02-08T05:17:52.920Z,6.80
2019-02-08T05:20:25.970Z,6.70
2019-02-08T05:22:54.458Z,6.70
2019-02-08T05:25:22.924Z,6.70
2019-02-08T05:27:52.717Z,6.70
2019-02-08T05:30:27.161Z,6.60
2019-02-08T05:32:55.643Z,6.60
2019-02-08T05:35:25.293Z,6.50
2019-02-08T05:37:53.946Z,6.50
2019-02-08T05:40:22.613Z,6.50
2019-02-08T05:42:51.015Z,6.50
2019-02-08T05:45:22.109Z,6.50
2019-02-08T05:47:50.534Z,6.50
2019-02-08T05:50:21.473Z,6.50
2019-02-08T05:52:50.216Z,6.60
2019-02-08T05:55:21.149Z,6.60
2019-02-08T05:57:49.735Z,6.60
2019-02-08T06:00:25.816Z,6.70
2019-02-08T06:02:54.246Z,6.60
2019-02-08T06:05:23.179Z,6.60
2019-02-08T06:07:51.663Z,6.60
2019-02-08T06:10:20.254Z,6.60
2019-02-08T06:12:48.641Z,6.60
2019-02-08T06:15:20.185Z,6.70
2019-02-08T06:17:48.689Z,6.80
2019-02-08T06:20:21.585Z,6.90
2019-02-08T06:22:50.408Z,7.00
2019-02-08T06:25:21.171Z,7.00
2019-02-08T06:27:49.879Z,7.00
2019-02-08T06:30:20.848Z,7.00
2019-02-08T06:32:49.290Z,7.00
2019-02-08T06:35:19.550Z,7.00
2019-02-08T06:37:47.944Z,7.10
2019-02-08T06:40:19.361Z,7.20
2019-02-08T06:42:47.748Z,7.20
2019-02-08T06:45:18.972Z,7.20
2019-02-08T06:47:47.373Z,7.20
2019-02-08T06:50:18.688Z,7.30
2019-02-08T06:52:47.084Z,7.20
2019-02-08T06:55:15.830Z,7.20
2019-02-08T06:57:48.808Z,7.30
2019-02-08T07:00:22.199Z,7.30
2019-02-08T07:02:55.173Z,7.30
2019-02-08T07:05:41.699Z,7.30
2019-02-08T07:08:11.717Z,7.40
2019-02-08T07:10:57.077Z,7.40
2019-02-08T07:13:49.645Z,7.40
2019-02-08T07:16:22.603Z,7.40
2019-02-08T07:18:52.653Z,7.50
2019-02-08T07:21:34.585Z,7.50
2019-02-08T07:24:07.585Z,7.50
2019-02-08T07:26:46.525Z,7.50
2019-02-08T07:29:19.264Z,7.60
2019-02-08T07:32:04.607Z,7.60
2019-02-08T07:34:51.285Z,7.60
2019-02-08T07:37:24.774Z,7.60
2019-02-08T07:40:14.192Z,7.60
2019-02-08T07:42:53.635Z,7.60
2019-02-08T07:45:26.674Z,7.60
2019-02-08T07:47:56.867Z,7.70
2019-02-08T07:50:26.921Z,7.70
2019-02-08T07:52:59.369Z,7.70
2019-02-08T07:55:44.413Z,7.70
2019-02-08T07:58:20.969Z,7.80
2019-02-08T08:00:54.480Z,7.80
2019-02-08T08:03:33.584Z,7.80
2019-02-08T08:06:19.570Z,7.90
2019-02-08T08:08:58.720Z,7.90
2019-02-08T08:11:28.772Z,7.90
2019-02-08T08:13:59.244Z,8.00
2019-02-08T08:16:46.304Z,8.00
2019-02-08T08:19:34.747Z,8.00
2019-02-08T08:22:04.879Z,8.00
2019-02-08T08:24:38.208Z,8.00
2019-02-08T08:27:11.085Z,8.10
2019-02-08T08:29:48.076Z,8.10
2019-02-08T08:32:19.860Z,8.10
2019-02-08T08:34:56.940Z,8.10
2019-02-08T08:37:44.839Z,8.10
2019-02-08T08:40:28.282Z,8.20
2019-02-08T08:43:19.511Z,8.20
2019-02-08T08:46:05.825Z,8.30
2019-02-08T08:48:42.746Z,8.20
2019-02-08T08:51:28.524Z,8.20
2019-02-08T08:54:02.650Z,8.20
2019-02-08T08:56:49.231Z,8.20
2019-02-08T08:59:35.370Z,8.30
2019-02-08T09:02:15.935Z,8.30
2019-02-08T09:04:56.217Z,8.30
2019-02-08T09:07:53.444Z,8.30
2019-02-08T09:10:31.117Z,8.30
2019-02-08T09:13:15.174Z,8.40
2019-02-08T09:16:07.824Z,8.40
2019-02-08T09:19:12.506Z,8.40
2019-02-08T09:21:52.586Z,8.40
2019-02-08T09:24:47.040Z,8.50
2019-02-08T09:27:33.631Z,8.50
2019-02-08T09:30:16.960Z,8.50
2019-02-08T09:32:54.016Z,8.50
2019-02-08T09:35:40.440Z,8.60
2019-02-08T09:38:29.856Z,8.60
2019-02-08T09:41:21.829Z,8.70
2019-02-08T09:43:53.289Z,8.70
2019-02-08T09:46:58.280Z,8.70
2019-02-08T09:49:35.517Z,8.70
2019-02-08T09:52:28.380Z,8.70
2019-02-08T09:55:20.460Z,8.80
2019-02-08T09:58:06.963Z,8.80
2019-02-08T10:01:07.076Z,8.80
2019-02-08T10:03:52.956Z,8.90
2019-02-08T10:06:45.939Z,8.90
2019-02-08T10:09:20.278Z,9.00
2019-02-08T10:12:08.666Z,9.10
2019-02-08T10:14:40.180Z,9.10
2019-02-08T10:17:26.485Z,9.20
2019-02-08T10:20:27.016Z,9.20
2019-02-08T10:23:25.576Z,9.20
2019-02-08T10:26:14.812Z,9.10
2019-02-08T10:28:46.276Z,9.20
2019-02-08T10:31:34.267Z,9.20
2019-02-08T10:34:37.820Z,9.20
2019-02-08T10:37:17.868Z,9.30
2019-02-08T10:40:06.549Z,9.40
2019-02-08T10:42:49.576Z,9.40
2019-02-08T10:45:23.950Z,9.50
2019-02-08T10:47:55.408Z,9.70
2019-02-08T10:50:46.389Z,9.80
2019-02-08T10:53:26.769Z,9.90
2019-02-08T10:56:15.229Z,10.10
2019-02-08T10:59:02.161Z,10.20
2019-02-08T11:02:02.644Z,10.30
2019-02-08T11:04:56.484Z,10.30
2019-02-08T11:07:47.212Z,10.30
2019-02-08T11:10:52.256Z,10.30
2019-02-08T11:13:33.933Z,10.30
2019-02-08T11:16:40.254Z,10.30
2019-02-08T11:19:16.965Z,10.30
2019-02-08T11:21:46.604Z,10.30
2019-02-08T11:24:16.558Z,10.20
2019-02-08T11:26:45.195Z,10.20
2019-02-08T11:29:13.640Z,10.20
2019-02-08T11:31:42.068Z,10.20
2019-02-08T11:34:10.461Z,10.20
2019-02-08T11:36:39.173Z,10.20
2019-02-08T11:39:12.916Z,10.20
2019-02-08T11:41:41.879Z,10.20
2019-02-08T11:44:10.360Z,10.20
2019-02-08T11:46:39.120Z,10.20
2019-02-08T11:49:07.880Z,10.10
2019-02-08T11:51:36.272Z,10.20
2019-02-08T11:54:06.240Z,10.20
2019-02-08T11:56:34.828Z,10.30
2019-02-08T11:59:03.507Z,10.30
2019-02-08T12:01:33.547Z,10.20
2019-02-08T12:04:01.952Z,10.30
2019-02-08T12:06:30.378Z,10.30
2019-02-08T12:08:58.865Z,10.30
2019-02-08T12:11:27.260Z,10.30
2019-02-08T12:13:55.668Z,10.20
2019-02-08T12:16:24.068Z,10.30
2019-02-08T12:18:52.472Z,10.20
2019-02-08T12:21:20.961Z,10.20
2019-02-08T12:23:49.389Z,10.00
2019-02-08T12:26:17.788Z,9.90
2019-02-08T12:28:46.183Z,9.80
2019-02-08T12:31:14.567Z,9.70
2019-02-08T12:33:43.021Z,9.60
2019-02-08T12:36:11.452Z,9.50
2019-02-08T12:38:39.851Z,9.40
2019-02-08T12:41:09.795Z,9.30
2019-02-08T12:43:38.549Z,9.30
2019-02-08T12:46:07.026Z,9.20
2019-02-08T12:48:36.503Z,9.20
2019-02-08T12:51:05.167Z,9.10
2019-02-08T12:53:33.572Z,9.10
2019-02-08T12:56:01.968Z,9.10
2019-02-08T12:58:30.437Z,9.00
2019-02-08T13:00:58.832Z,9.00
2019-02-08T13:03:27.237Z,9.00
2019-02-08T13:05:55.628Z,9.00
2019-02-08T13:08:24.057Z,9.00
2019-02-08T13:10:52.446Z,9.00
2019-02-08T13:13:20.853Z,8.90
2019-02-08T13:15:49.249Z,8.90
2019-02-08T13:18:17.658Z,8.90
2019-02-08T13:20:46.056Z,8.80
2019-02-08T13:23:14.469Z,8.80
2019-02-08T13:25:42.871Z,8.80
2019-02-08T13:28:11.288Z,8.80
2019-02-08T13:30:39.678Z,8.80
2019-02-08T13:33:08.256Z,8.80
2019-02-08T13:35:36.640Z,8.70
2019-02-08T13:38:05.222Z,8.70
2019-02-08T13:40:33.628Z,8.70
2019-02-08T13:43:02.041Z,8.70
2019-02-08T13:45:30.443Z,8.70
2019-02-08T13:47:58.857Z,8.70
2019-02-08T13:50:32.675Z,8.70
2019-02-08T13:53:01.072Z,8.80
2019-02-08T13:55:29.552Z,8.80
2019-02-08T13:57:58.096Z,8.80
2019-02-08T14:00:35.462Z,8.80
2019-02-08T14:03:04.714Z,8.80
2019-02-08T14:05:33.370Z,8.80
2019-02-08T14:08:01.788Z,8.80
2019-02-08T14:10:30.184Z,8.90
2019-02-08T14:12:58.570Z,8.90
2019-02-08T14:15:27.439Z,9.00
2019-02-08T14:17:55.826Z,9.00
2019-02-08T14:20:26.453Z,9.10
2019-02-08T14:22:55.312Z,9.10
2019-02-08T14:25:23.959Z,9.10
2019-02-08T14:27:52.596Z,9.10
2019-02-08T14:30:23.954Z,9.10
2019-02-08T14:32:52.505Z,9.10
2019-02-08T14:35:20.970Z,9.10
2019-02-08T14:37:49.649Z,9.20
2019-02-08T14:40:20.966Z,9.20
2019-02-08T14:42:49.448Z,9.30
2019-02-08T14:45:18.095Z,9.30
2019-02-08T14:47:46.852Z,9.40
2019-02-08T14:50:28.882Z,9.40
2019-02-08T14:52:57.825Z,9.30
2019-02-08T14:55:26.239Z,9.40
2019-02-08T14:58:00.396Z,9.30
2019-02-08T15:00:28.829Z,9.30
2019-02-08T15:02:57.221Z,9.30
2019-02-08T15:05:25.643Z,9.30
2019-02-08T15:07:54.134Z,9.30
2019-02-08T15:10:31.181Z,9.30
2019-02-08T15:13:00.356Z,9.30
2019-02-08T15:15:28.976Z,9.30
2019-02-08T15:17:57.355Z,9.40
2019-02-08T15:20:28.562Z,9.40
2019-02-08T15:22:56.991Z,9.40
2019-02-08T15:25:25.448Z,9.40
2019-02-08T15:27:53.863Z,9.40
2019-02-08T15:30:30.948Z,9.30
2019-02-08T15:32:59.370Z,9.40
2019-02-08T15:35:29.825Z,9.30
2019-02-08T15:37:58.361Z,9.40
2019-02-08T15:40:38.930Z,9.30
2019-02-08T15:43:08.593Z,9.20
2019-02-08T15:45:37.432Z,9.20
2019-02-08T15:48:06.066Z,9.30
2019-02-08T15:50:34.608Z,9.30
2019-02-08T15:53:03.089Z,9.20
2019-02-08T15:55:37.229Z,9.20
2019-02-08T15:58:06.065Z,9.20
2019-02-08T16:00:34.570Z,9.20
2019-02-08T16:03:03.136Z,9.10
2019-02-08T16:05:32.122Z,9.10
2019-02-08T16:08:00.669Z,9.10
2019-02-08T16:10:29.084Z,9.10
2019-02-08T16:12:57.479Z,9.10
2019-02-08T16:15:30.633Z,9.10
2019-02-08T16:17:59.024Z,9.10
2019-02-08T16:20:30.152Z,9.10
2019-02-08T16:22:59.784Z,9.10
2019-02-08T16:25:32.350Z,9.10
2019-02-08T16:28:00.802Z,9.20
2019-02-08T16:30:31.806Z,9.20
2019-02-08T16:33:00.561Z,9.20
2019-02-08T16:35:29.503Z,9.20
2019-02-08T16:37:58.092Z,9.20
2019-02-08T16:40:30.336Z,9.20
2019-02-08T16:42:59.222Z,9.20
2019-02-08T16:45:30.055Z,9.20
2019-02-08T16:47:59.638Z,9.20
2019-02-08T16:50:30.057Z,9.30
2019-02-08T16:52:58.723Z,9.30
2019-02-08T16:55:27.329Z,9.30
2019-02-08T16:57:56.101Z,9.30
2019-02-08T17:00:29.482Z,9.30
2019-02-08T17:02:59.949Z,9.30
2019-02-08T17:05:29.288Z,9.30
2019-02-08T17:07:57.861Z,9.30
2019-02-08T17:10:26.326Z,9.30
2019-02-08T17:12:55.012Z,9.30
2019-02-08T17:15:26.511Z,9.20
2019-02-08T17:17:55.236Z,9.20
2019-02-08T17:20:28.781Z,9.20
2019-02-08T17:22:57.253Z,9.20
2019-02-08T17:25:26.222Z,9.20
2019-02-08T17:27:55.641Z,9.20
2019-02-08T17:30:24.704Z,9.20
2019-02-08T17:32:53.099Z,9.20
2019-02-08T17:35:23.364Z,9.30
2019-02-08T17:37:51.757Z,9.30
2019-02-08T17:40:28.640Z,9.30
2019-02-08T17:42:57.043Z,9.30
2019-02-08T17:45:25.632Z,9.30
2019-02-08T17:47:55.200Z,9.30
2019-02-08T17:50:26.221Z,9.30
2019-02-08T17:52:54.680Z,9.30
2019-02-08T17:55:28.003Z,9.30
2019-02-08T17:58:03.188Z,9.30
2019-02-08T18:00:39.954Z,9.30
2019-02-08T18:03:08.320Z,9.30
2019-02-08T18:05:36.776Z,9.30
2019-02-08T18:08:06.756Z,9.30
2019-02-08T18:10:35.403Z,9.30
2019-02-08T18:13:04.071Z,9.30
2019-02-08T18:15:32.458Z,9.30
2019-02-08T18:18:01.233Z,9.30
2019-02-08T18:20:38.650Z,9.30
2019-02-08T18:23:07.200Z,9.30
2019-02-08T18:25:35.593Z,9.30
2019-02-08T18:28:10.869Z,9.30
2019-02-08T18:30:34.743Z,9.30
2019-02-08T18:33:03.181Z,9.30
2019-02-08T18:35:31.569Z,9.30
2019-02-08T18:38:00.054Z,9.30
2019-02-08T18:40:28.432Z,9.30
2019-02-08T18:42:56.867Z,9.40
2019-02-08T18:45:31.230Z,9.30
2019-02-08T18:47:59.645Z,9.30
2019-02-08T18:50:33.119Z,9.40
2019-02-08T18:53:01.697Z,9.30
2019-02-08T18:55:30.163Z,9.30
2019-02-08T18:57:58.587Z,9.30
2019-02-08T19:00:39.952Z,9.20
2019-02-08T19:03:06.394Z,9.20
2019-02-08T19:05:34.780Z,9.20
2019-02-08T19:08:03.432Z,9.20
2019-02-08T19:10:32.018Z,9.20
2019-02-08T19:13:00.393Z,9.20
2019-02-08T19:15:28.809Z,9.20
2019-02-08T19:17:57.222Z,9.20
2019-02-08T19:20:27.364Z,9.20
2019-02-08T19:22:55.852Z,9.20
2019-02-08T19:25:36.193Z,9.10
2019-02-08T19:28:05.244Z,9.20
2019-02-08T19:30:36.049Z,9.20
2019-02-08T19:33:05.298Z,9.20
2019-02-08T19:35:34.039Z,9.20
2019-02-08T19:38:02.888Z,9.20
2019-02-08T19:40:33.549Z,9.30
2019-02-08T19:43:02.040Z,9.40
2019-02-08T19:45:30.529Z,9.50
2019-02-08T19:47:58.921Z,9.60
2019-02-08T19:50:38.237Z,9.60
2019-02-08T19:53:07.363Z,9.50
2019-02-08T19:55:35.933Z,9.50
2019-02-08T19:58:05.780Z,9.50
2019-02-08T20:00:36.016Z,9.50
2019-02-08T20:03:05.976Z,9.50
2019-02-08T20:05:34.376Z,9.50
2019-02-08T20:08:02.953Z,9.40
2019-02-08T20:10:40.096Z,9.40
2019-02-08T20:13:08.515Z,9.30
2019-02-08T20:15:36.914Z,9.30
2019-02-08T20:18:06.069Z,9.30
2019-02-08T20:20:34.476Z,9.30
2019-02-08T20:23:03.322Z,9.20
2019-02-08T20:25:33.899Z,9.20
2019-02-08T20:28:02.403Z,9.20
2019-02-08T20:30:31.942Z,9.20
2019-02-08T20:33:00.925Z,9.20
2019-02-08T20:35:29.605Z,9.20
2019-02-08T20:37:59.285Z,9.20
2019-02-08T20:40:33.290Z,9.20
2019-02-08T20:43:01.929Z,9.20
2019-02-08T20:45:34.669Z,9.30
2019-02-08T20:48:06.440Z,9.30
2019-02-08T20:50:35.091Z,9.30
2019-02-08T20:53:04.337Z,9.30
2019-02-08T20:55:33.676Z,9.30
2019-02-08T20:58:02.177Z,9.20
2019-02-08T21:00:36.829Z,9.20
2019-02-08T21:03:08.256Z,9.30
2019-02-08T21:05:36.889Z,9.20
2019-02-08T21:08:07.254Z,9.20
2019-02-08T21:10:36.595Z,9.30
2019-02-08T21:13:06.930Z,9.30
2019-02-08T21:15:35.480Z,9.30
2019-02-08T21:18:04.812Z,9.30
2019-02-08T21:20:33.297Z,9.30
2019-02-08T21:23:01.753Z,9.30
2019-02-08T21:25:32.796Z,9.30
2019-02-08T21:28:01.192Z,9.30
2019-02-08T21:30:29.767Z,9.40
2019-02-08T21:32:58.429Z,9.40
2019-02-08T21:35:26.901Z,9.40
2019-02-08T21:37:55.502Z,9.40
2019-02-08T21:40:25.725Z,9.40
2019-02-08T21:42:54.552Z,9.30
2019-02-08T21:45:40.240Z,9.40
2019-02-08T21:48:09.994Z,9.30
2019-02-08T21:50:38.564Z,9.20
2019-02-08T21:53:07.050Z,9.20
2019-02-08T21:55:35.812Z,9.40
2019-02-08T21:58:05.014Z,9.40
2019-02-08T22:00:38.364Z,9.40
2019-02-08T22:03:07.839Z,9.50
2019-02-08T22:05:39.451Z,9.50
2019-02-08T22:08:08.033Z,9.50
2019-02-08T22:10:36.444Z,9.50
2019-02-08T22:13:07.520Z,9.50
2019-02-08T22:15:38.626Z,9.50
2019-02-08T22:18:07.558Z,9.60
2019-02-08T22:20:36.125Z,9.50
2019-02-08T22:23:05.249Z,9.60
2019-02-08T22:25:33.901Z,9.60
2019-02-08T22:28:02.306Z,9.60
2019-02-08T22:30:31.086Z,9.60
2019-02-08T22:33:05.688Z,9.60
2019-02-08T22:35:34.104Z,9.60
2019-02-08T22:38:02.493Z,9.50
2019-02-08T22:40:30.912Z,9.50
2019-02-08T22:42:59.304Z,9.50
2019-02-08T22:45:32.940Z,9.50
2019-02-08T22:48:01.385Z,9.40
2019-02-08T22:50:30.242Z,9.50
2019-02-08T22:52:58.860Z,9.50
2019-02-08T22:55:30.367Z,9.50
2019-02-08T22:57:59.196Z,9.50
2019-02-08T23:00:37.870Z,9.50
2019-02-08T23:03:11.216Z,9.40
2019-02-08T23:05:45.362Z,9.40
2019-02-08T23:08:10.656Z,9.40
2019-02-08T23:10:39.257Z,9.30
2019-02-08T23:13:11.478Z,9.30
2019-02-08T23:15:39.961Z,9.30
2019-02-08T23:18:10.192Z,9.30
2019-02-08T23:20:39.057Z,9.30
2019-02-08T23:23:07.995Z,9.30
2019-02-08T23:25:36.414Z,9.30
2019-02-08T23:28:05.440Z,9.30
2019-02-08T23:30:34.008Z,9.30
2019-02-08T23:33:02.400Z,9.30
2019-02-08T23:35:30.880Z,9.30
2019-02-08T23:37:59.272Z,9.20
2019-02-08T23:40:27.692Z,9.30
2019-02-08T23:42:56.081Z,9.20
2019-02-08T23:45:24.675Z,9.20
2019-02-08T23:47:53.065Z,9.20
2019-02-08T23:50:22.816Z,9.20
2019-02-08T23:52:51.280Z,9.20
2019-02-08T23:55:22.003Z,9.20
2019-02-08T23:57:50.678Z,9.20
